Time;durP1;ratioP1;P1;durP2;ratioP2;P2;SDS_P1;SDS_P2;PMS_P1;PMS_P2;Temp;Humidity;BMP_temperature;BMP_pressure;BME280_temperature;BME280_humidity;BME280_pressure;Samples;Min_cycle;Max_cycle;Signal;HPM_P1;HPM_P2
2023/05/11 00:00:40;;;;;;;35.22;20.58;;;12.40;99.90;;;-144.05;88.22;56938.03;5056802;28;20025;-78
2023/05/11 00:03:06;;;;;;;40.38;23.13;;;12.40;99.90;;;-144.05;88.60;56940.16;5057365;28;20017;-75
2023/05/11 00:05:32;;;;;;;41.53;21.95;;;12.40;99.90;;;-144.05;88.31;56929.53;5055648;28;20477;-78
2023/05/11 00:07:58;;;;;;;47.08;23.42;;;12.40;99.90;;;-144.05;88.40;56952.91;5055362;28;20504;-75
2023/05/11 00:10:23;;;;;;;36.67;21.30;;;12.40;99.90;;;-144.05;88.33;56929.53;5038443;28;20127;-76
2023/05/11 00:12:49;;;;;;;41.22;21.60;;;12.30;99.90;;;-144.05;88.37;56944.41;5056437;28;20108;-75
2023/05/11 00:15:15;;;;;;;42.10;21.92;;;12.30;99.90;;;-144.05;88.44;56916.81;5055121;28;20332;-76
2023/05/11 00:17:41;;;;;;;39.13;21.88;;;12.30;99.90;;;-144.05;88.43;56923.19;5055838;28;20520;-78
2023/05/11 00:20:08;;;;;;;41.83;21.27;;;12.30;99.90;;;-144.05;88.34;56929.53;5056316;28;20033;-78
2023/05/11 00:22:34;;;;;;;40.22;22.35;;;12.30;99.90;;;-144.05;88.36;56940.16;5056225;28;20021;-77
2023/05/11 00:25:00;;;;;;;41.33;21.15;;;12.30;99.90;;;-144.05;88.28;56950.78;5056286;28;20040;-76
2023/05/11 00:27:25;;;;;;;44.00;22.92;;;12.20;99.90;;;-144.05;88.21;56959.28;5056811;28;20506;-77
2023/05/11 00:29:51;;;;;;;38.28;21.45;;;12.20;99.90;;;-144.05;88.30;56969.91;5056056;28;20071;-78
2023/05/11 00:32:17;;;;;;;40.70;21.95;;;12.20;99.90;;;-144.05;88.13;56918.94;5056139;28;20071;-77
2023/05/11 00:34:43;;;;;;;43.72;23.20;;;12.10;99.90;;;-144.05;88.41;56948.66;5057010;28;20029;-77
2023/05/11 00:37:09;;;;;;;47.83;24.33;;;12.10;99.90;;;-144.05;88.48;56916.81;5057174;28;20116;-77
2023/05/11 00:39:39;;;;;;;47.53;23.98;;;12.10;99.90;;;-144.05;88.77;56929.53;5056391;28;20144;-75
2023/05/11 00:42:06;;;;;;;44.63;23.67;;;12.10;99.90;;;-144.05;88.75;56933.78;5056013;28;20045;-77
2023/05/11 00:44:32;;;;;;;43.00;22.55;;;12.10;99.90;;;-144.05;88.76;56940.16;5056208;28;20031;-79
2023/05/11 00:46:58;;;;;;;41.75;22.05;;;12.10;99.90;;;-144.05;88.59;56946.53;5056841;28;20546;-78
2023/05/11 00:49:24;;;;;;;50.20;25.08;;;12.10;99.90;;;-144.05;88.80;56935.91;5056543;28;20033;-79
2023/05/11 00:51:50;;;;;;;50.30;24.55;;;12.10;99.90;;;-144.05;88.89;56944.41;5055741;28;20071;-77
2023/05/11 00:54:17;;;;;;;47.88;23.77;;;12.10;99.90;;;-144.05;88.73;56923.19;5037993;28;20451;-77
2023/05/11 00:56:43;;;;;;;43.22;23.33;;;12.10;99.90;;;-144.05;88.48;56923.19;5038176;28;20029;-77
2023/05/11 00:59:08;;;;;;;42.92;22.35;;;12.10;99.90;;;-144.05;88.56;56955.03;5055458;28;20040;-75
2023/05/11 01:01:37;;;;;;;42.22;22.33;;;12.10;99.90;;;-144.05;88.31;56946.53;5060552;28;20029;-76
2023/05/11 01:04:04;;;;;;;51.40;23.90;;;12.10;99.90;;;-144.05;88.45;56965.66;5066548;28;20025;-77
2023/05/11 01:06:54;;;;;;;51.67;24.75;;;12.10;99.90;;;-144.05;88.59;56950.78;5041050;28;20029;-77
2023/05/11 01:10:19;;;;;;;47.67;23.95;;;12.10;99.90;;;-144.05;88.76;56955.03;5052776;28;20463;-76
2023/05/11 01:13:21;;;;;;;47.40;23.48;;;12.10;99.90;;;-144.05;88.53;56946.53;5038551;28;20403;-78
2023/05/11 01:15:55;;;;;;;43.25;21.48;;;12.10;99.90;;;-144.05;88.65;56961.41;5066880;28;20033;-78
2023/05/11 01:18:50;;;;;;;47.13;23.38;;;12.00;99.90;;;-144.05;88.67;56923.19;5067134;28;20031;-78
2023/05/11 01:21:17;;;;;;;46.05;22.30;;;12.10;99.90;;;-144.05;88.66;56955.03;5071151;28;20096;-77
2023/05/11 01:24:43;;;;;;;49.30;24.58;;;12.10;99.90;;;-144.05;88.70;56918.94;5070331;28;20124;-78
2023/05/11 01:28:13;;;;;;;56.50;27.65;;;12.10;99.90;;;-144.05;88.80;56955.03;5024972;28;20044;-76
2023/05/11 01:31:11;;;;;;;60.75;29.38;;;12.10;99.90;;;-144.05;88.60;56929.53;5044729;28;20104;-78
2023/05/11 01:34:06;;;;;;;57.35;29.23;;;12.10;99.90;;;-144.05;88.25;56938.03;5069718;28;20054;-75
2023/05/11 01:36:50;;;;;;;48.80;26.45;;;12.10;99.90;;;-144.05;88.32;56957.16;5058722;28;20591;-75
2023/05/11 01:39:31;;;;;;;59.17;28.52;;;12.10;99.90;;;-144.05;88.29;56938.03;5059927;28;20044;-76
2023/05/11 01:42:07;;;;;;;56.15;28.80;;;12.10;99.90;;;-144.05;88.25;56950.78;5058743;28;20511;-77
2023/05/11 01:44:36;;;;;;;;;;;12.10;99.90;;;-144.05;88.30;56933.78;5058864;28;20418;-77
2023/05/11 01:47:05;;;;;;;61.35;29.85;;;12.20;99.90;;;-144.05;88.02;56942.28;5059769;28;19908;-77
2023/05/11 01:49:37;;;;;;;60.05;28.50;;;12.10;99.90;;;-144.05;88.15;56952.91;5059441;28;20028;-75
2023/05/11 01:52:07;;;;;;;60.78;29.05;;;12.20;99.90;;;-144.05;88.09;56942.28;5058891;28;20524;-75
2023/05/11 01:54:39;;;;;;;57.40;29.75;;;12.10;99.90;;;-144.05;88.15;56918.94;5058087;28;20036;-77
2023/05/11 01:57:08;;;;;;;55.70;29.90;;;12.20;99.90;;;-144.05;87.80;56942.28;5057805;28;20025;-75
2023/05/11 01:59:39;;;;;;;55.30;29.25;;;12.10;99.90;;;-144.05;87.75;56955.03;5058387;28;20036;-79
2023/05/11 02:02:08;;;;;;;64.32;30.77;;;12.10;99.90;;;-144.05;87.92;56918.94;5056806;28;20029;-78
2023/05/11 02:04:38;;;;;;;62.38;31.83;;;12.10;99.90;;;-144.05;87.68;56944.41;5058352;28;20051;-75
2023/05/11 02:07:09;;;;;;;55.42;30.27;;;12.10;99.90;;;-144.05;87.73;56948.66;5059221;28;20044;-79
2023/05/11 02:09:38;;;;;;;57.60;30.33;;;12.20;99.90;;;-144.05;87.72;56942.28;5058830;28;20028;-76
2023/05/11 02:12:07;;;;;;;54.10;29.70;;;12.10;99.90;;;-144.05;87.76;56923.19;5059113;28;20044;-77
2023/05/11 02:14:36;;;;;;;63.60;31.13;;;12.10;99.90;;;-144.05;87.51;56946.53;5058512;28;20028;-75
2023/05/11 02:17:06;;;;;;;60.95;31.20;;;12.10;99.90;;;-144.05;87.14;56946.53;5040300;28;20033;-77
2023/05/11 02:19:36;;;;;;;54.17;30.00;;;12.10;99.90;;;-144.05;87.12;56933.78;5058455;28;20028;-77
2023/05/11 02:22:05;;;;;;;63.00;29.42;;;12.10;99.90;;;-144.05;87.39;56948.66;5057805;28;20099;-76
2023/05/11 02:24:34;;;;;;;59.55;28.98;;;12.10;99.90;;;-144.05;87.46;56931.66;5057868;28;20025;-74
2023/05/11 02:27:01;;;;;;;56.92;28.65;;;12.10;99.90;;;-144.05;87.61;56957.16;5057698;28;20029;-77
2023/05/11 02:29:27;;;;;;;54.38;28.55;;;12.20;99.90;;;-144.05;87.17;56927.41;5057760;28;20044;-77
2023/05/11 02:32:14;;;;;;;53.58;27.67;;;12.10;99.90;;;-144.05;87.33;56916.81;5058351;28;20044;-78
2023/05/11 02:34:44;;;;;;;;;;;12.20;99.90;;;-144.05;87.05;56927.41;5040356;28;20033;-75
2023/05/11 02:37:19;;;;;;;54.95;29.48;;;12.10;99.90;;;-144.05;87.60;56948.66;5057623;28;19909;-75
2023/05/11 02:39:54;;;;;;;54.63;26.33;;;12.20;99.90;;;-144.05;87.40;56946.53;5057455;28;20079;-77
2023/05/11 02:42:23;;;;;;;56.65;27.33;;;12.10;99.90;;;-144.05;87.37;56944.41;5056059;28;20025;-75
2023/05/11 02:45:04;;;;;;;55.60;27.73;;;12.20;99.90;;;-144.05;87.38;56948.66;5056783;28;20400;-77
2023/05/11 02:48:06;;;;;;;57.85;29.13;;;12.20;99.90;;;-144.05;87.42;56923.19;5056616;28;20025;-75
2023/05/11 02:50:40;;;;;;;57.63;28.60;;;12.20;99.90;;;-144.05;87.25;56944.41;5036281;28;20144;-77
2023/05/11 02:53:15;;;;;;;54.63;27.70;;;12.20;99.90;;;-144.05;87.35;56938.03;5055822;28;20025;-77
2023/05/11 02:55:41;;;;;;;57.35;28.27;;;12.20;99.90;;;-144.05;87.35;56931.66;5054858;28;20040;-77
2023/05/11 02:58:08;;;;;;;56.13;28.50;;;12.20;99.90;;;-144.05;87.26;56912.56;5055242;28;20029;-75
2023/05/11 03:00:34;;;;;;;65.80;31.85;;;12.20;99.90;;;-144.05;87.10;56899.81;5055931;28;20025;-77
2023/05/11 03:03:00;;;;;;;55.22;29.35;;;12.10;99.90;;;-144.05;87.38;56946.53;5038988;28;20480;-77
2023/05/11 03:05:26;;;;;;;64.68;30.27;;;12.10;99.90;;;-144.05;87.32;56933.78;5060708;28;20043;-78
2023/05/11 03:07:58;;;;;;;55.83;29.45;;;12.10;99.90;;;-144.05;87.27;56916.81;5058379;28;20033;-75
2023/05/11 03:10:28;;;;;;;62.97;30.40;;;12.10;99.90;;;-144.05;87.29;56938.03;5059252;28;20550;-77
2023/05/11 03:12:55;;;;;;;60.90;30.95;;;12.10;99.90;;;-144.05;86.98;56940.16;5055967;28;20451;-77
2023/05/11 03:15:22;;;;;;;52.83;29.05;;;12.10;99.90;;;-144.05;87.12;56942.28;5055424;28;20033;-77
2023/05/11 03:17:52;;;;;;;50.97;27.58;;;12.00;99.90;;;-144.05;87.05;56929.53;5055662;28;20032;-76
2023/05/11 03:20:21;;;;;;;54.03;28.08;;;12.10;99.90;;;-144.05;87.15;56923.19;5056280;28;20025;-76
2023/05/11 03:22:50;;;;;;;58.63;29.58;;;12.00;99.90;;;-144.05;86.88;56950.78;5056038;28;20091;-77
2023/05/11 03:25:17;;;;;;;57.22;29.02;;;12.00;99.90;;;-144.05;87.08;56942.28;5055336;28;20033;-77
2023/05/11 03:27:46;;;;;;;58.28;30.30;;;12.00;99.90;;;-144.05;87.16;56955.03;5055235;28;20025;-76
2023/05/11 03:30:16;;;;;;;56.47;28.20;;;12.00;99.90;;;-144.05;87.08;56965.66;5056810;28;20033;-78
2023/05/11 03:32:42;;;;;;;51.78;27.40;;;11.90;99.90;;;-144.05;86.88;56929.53;5056126;28;20021;-76
2023/05/11 03:35:08;;;;;;;53.28;26.85;;;11.90;99.90;;;-144.05;87.07;56965.66;5057838;28;20033;-78
2023/05/11 03:37:38;;;;;;;59.55;28.23;;;11.90;99.90;;;-144.05;86.97;56929.53;5057963;28;20025;-75
2023/05/11 03:40:07;;;;;;;59.88;29.73;;;11.80;99.90;;;-144.05;87.05;56935.91;5055035;28;20029;-77
2023/05/11 03:42:37;;;;;;;59.30;29.65;;;11.80;99.90;;;-144.05;87.12;56929.53;5055212;28;20555;-77
2023/05/11 03:45:08;;;;;;;62.22;29.55;;;11.80;99.90;;;-144.05;87.43;56955.03;5056121;28;20041;-77
2023/05/11 03:47:39;;;;;;;59.75;29.08;;;11.90;99.90;;;-144.05;87.30;56959.28;5056374;28;20157;-76
2023/05/11 03:50:08;;;;;;;59.40;29.08;;;11.90;99.90;;;-144.05;87.57;56963.53;5054827;28;20120;-77
2023/05/11 03:52:36;;;;;;;58.50;29.95;;;11.90;99.90;;;-144.05;87.40;56938.03;5038542;28;20024;-75
2023/05/11 03:55:03;;;;;;;57.25;29.58;;;12.00;99.90;;;-144.05;87.90;56931.66;5036022;23;20137;-76
2023/05/11 03:57:29;;;;;;;64.50;30.60;;;12.00;99.90;;;-144.05;87.76;56925.28;4999206;28;20029;-78
2023/05/11 03:59:56;;;;;;;52.60;27.80;;;12.00;99.90;;;-144.05;87.54;56955.03;4982652;28;20077;-78
2023/05/11 04:02:23;;;;;;;68.35;30.83;;;12.00;99.90;;;-144.05;87.38;56952.91;5000213;28;20030;-77
2023/05/11 04:04:51;;;;;;;59.00;28.60;;;12.00;99.90;;;-144.05;87.49;56948.66;5001017;28;20506;-77
2023/05/11 04:07:17;;;;;;;59.75;29.88;;;12.00;99.90;;;-144.05;87.55;56942.28;5001002;28;20030;-76
2023/05/11 04:09:42;;;;;;;52.22;26.88;;;12.00;99.90;;;-144.05;87.38;56948.66;4982707;28;20084;-76
2023/05/11 04:12:08;;;;;;;62.58;29.88;;;12.10;99.90;;;-144.05;87.27;56927.41;5000690;28;20510;-79
2023/05/11 04:14:34;;;;;;;52.40;27.08;;;12.00;99.90;;;-144.05;87.44;56976.28;5000218;28;20058;-77
2023/05/11 04:17:00;;;;;;;64.57;29.73;;;12.00;99.90;;;-144.05;87.53;56925.28;4999541;28;20041;-77
2023/05/11 04:19:26;;;;;;;57.13;27.70;;;12.00;99.90;;;-144.05;87.60;56957.16;5000336;28;20034;-78
2023/05/11 04:21:52;;;;;;;52.35;25.27;;;12.10;99.90;;;-144.05;87.48;56948.66;5001290;28;20033;-77
2023/05/11 04:24:18;;;;;;;58.47;27.13;;;12.10;99.90;;;-144.05;87.60;56938.03;5001149;28;20394;-78
2023/05/11 04:26:44;;;;;;;56.00;27.33;;;12.10;99.90;;;-144.05;87.55;56940.16;5000915;28;20046;-78
2023/05/11 04:29:10;;;;;;;58.53;28.30;;;12.10;99.90;;;-144.05;87.73;56927.41;5002056;28;20030;-78
2023/05/11 04:31:36;;;;;;;58.33;28.88;;;12.10;99.90;;;-144.05;87.57;56942.28;4982899;28;20034;-78
2023/05/11 04:34:02;;;;;;;65.53;31.05;;;12.10;99.90;;;-144.05;87.68;56948.66;5001266;28;20034;-77
2023/05/11 04:36:28;;;;;;;60.67;29.48;;;12.10;99.90;;;-144.05;87.83;56935.91;4982966;28;20524;-80
2023/05/11 04:38:54;;;;;;;61.70;31.92;;;12.10;99.90;;;-144.05;87.79;56952.91;5000413;28;20031;-78
2023/05/11 04:41:21;;;;;;;60.28;31.15;;;12.20;99.90;;;-144.05;87.63;56946.53;4983381;28;20030;-79
2023/05/11 04:43:47;;;;;;;62.47;31.63;;;12.20;99.90;;;-144.05;87.60;56946.53;4984356;28;20022;-79
2023/05/11 04:46:13;;;;;;;63.05;31.13;;;12.20;99.90;;;-144.05;87.67;56927.41;5001164;28;20030;-78
2023/05/11 04:48:38;;;;;;;62.28;32.72;;;12.20;99.90;;;-144.05;87.52;56927.41;5002499;28;20031;-77
2023/05/11 04:51:05;;;;;;;69.35;33.60;;;12.20;99.90;;;-144.05;87.46;56944.41;5004865;28;20031;-80
2023/05/11 04:53:32;;;;;;;57.55;28.55;;;12.30;99.90;;;-144.05;87.49;56959.28;5003208;28;20475;-79
2023/05/11 04:55:58;;;;;;;59.60;29.73;;;12.30;99.90;;;-144.05;87.60;56925.28;5007520;28;20026;-79
2023/05/11 04:58:24;;;;;;;48.17;26.17;;;12.40;99.90;;;-144.05;87.78;56927.41;4987709;28;20030;-78
2023/05/11 05:00:50;;;;;;;65.15;30.92;;;12.50;99.90;;;-144.05;87.55;56921.06;4987194;28;20054;-79
2023/05/11 05:03:16;;;;;;;55.05;27.80;;;12.70;99.90;;;-144.05;87.53;56938.03;4987573;28;20058;-77
2023/05/11 05:05:41;;;;;;;62.75;33.83;;;12.70;99.90;;;-144.05;86.30;56931.66;4988235;28;20026;-78
2023/05/11 05:08:07;;;;;;;56.15;30.40;;;12.70;99.90;;;-144.05;86.74;56933.78;5003923;28;20027;-78
2023/05/11 05:10:33;;;;;;;57.17;29.05;;;12.70;99.90;;;-144.05;86.80;56940.16;5005147;28;20035;-78
2023/05/11 05:12:59;;;;;;;53.42;29.10;;;12.80;99.90;;;-144.05;86.57;56965.66;5005682;28;20034;-77
2023/05/11 05:15:25;;;;;;;55.88;30.30;;;12.80;99.90;;;-144.05;86.41;56955.03;5005366;28;20026;-79
2023/05/11 05:17:51;;;;;;;54.80;31.90;;;12.80;99.90;;;-144.05;86.28;56933.78;5004055;28;20034;-78
2023/05/11 05:20:17;;;;;;;61.78;32.00;;;12.80;99.90;;;-144.05;86.15;56942.28;4986336;28;20050;-79
2023/05/11 05:22:43;;;;;;;61.72;32.42;;;12.70;99.90;;;-144.05;86.29;56942.28;5004811;28;20085;-78
2023/05/11 05:25:09;;;;;;;61.20;32.42;;;12.70;99.90;;;-144.05;86.16;56946.53;5004402;28;20054;-79
2023/05/11 05:27:35;;;;;;;55.13;30.90;;;12.70;99.90;;;-144.05;86.07;56965.66;5002869;28;20082;-79
2023/05/11 05:30:00;;;;;;;51.58;29.90;;;12.60;99.90;;;-144.05;86.08;56921.06;4983781;28;20465;-77
2023/05/11 05:32:27;;;;;;;65.22;34.20;;;12.70;99.90;;;-144.05;86.53;56914.69;5000865;28;20034;-79
2023/05/11 05:34:53;;;;;;;58.13;31.92;;;12.70;99.90;;;-144.05;86.21;56929.53;4983870;28;20112;-78
2023/05/11 05:37:19;;;;;;;59.05;30.85;;;12.70;99.90;;;-144.05;86.08;56946.53;5002806;28;20023;-79
2023/05/11 05:39:45;;;;;;;68.80;33.58;;;12.70;99.90;;;-144.05;86.24;56929.53;5003362;28;20022;-78
2023/05/11 05:42:11;;;;;;;55.78;29.95;;;12.70;99.90;;;-144.05;86.11;56921.06;5004054;28;20068;-79
2023/05/11 05:44:37;;;;;;;65.43;33.58;;;12.70;99.90;;;-144.05;85.94;56944.41;4986485;28;20046;-79
2023/05/11 05:47:03;;;;;;;59.83;31.98;;;12.70;99.90;;;-144.05;85.57;56942.28;4984758;28;20041;-79
2023/05/11 05:49:29;;;;;;;62.28;33.67;;;12.70;99.90;;;-144.05;85.96;56969.91;5001818;28;20038;-78
2023/05/11 05:51:55;;;;;;;67.07;34.30;;;12.80;99.90;;;-144.05;85.49;56925.28;5003705;28;20034;-77
2023/05/11 05:54:21;;;;;;;66.97;34.80;;;12.70;99.90;;;-144.05;85.37;56942.28;5003679;28;20498;-79
2023/05/11 05:56:49;;;;;;;71.82;36.75;;;12.70;99.90;;;-144.05;85.24;56950.78;5005683;28;20343;-77
2023/05/11 05:59:15;;;;;;;61.30;33.95;;;12.80;99.90;;;-144.05;85.35;56946.53;5004174;28;20040;-78
2023/05/11 06:01:44;;;;;;;59.88;33.25;;;12.80;99.90;;;-144.05;85.61;56918.94;5003867;28;20050;-78
2023/05/11 06:04:12;;;;;;;64.70;33.78;;;12.90;99.90;;;-144.05;85.30;56957.16;5002371;28;20030;-77
2023/05/11 06:06:38;;;;;;;75.18;36.97;;;13.00;99.90;;;-144.05;85.14;56950.78;4984807;28;20030;-79
2023/05/11 06:09:04;;;;;;;60.85;32.65;;;13.00;99.90;;;-144.05;85.03;56940.16;5003867;28;20216;-77
2023/05/11 06:11:30;;;;;;;61.97;34.20;;;13.00;99.90;;;-144.05;85.17;56955.03;5003142;28;20066;-78
2023/05/11 06:13:56;;;;;;;67.88;36.80;;;13.10;99.90;;;-144.05;84.54;56955.03;5004744;28;20038;-79
2023/05/11 06:16:24;;;;;;;64.85;35.67;;;13.00;99.90;;;-144.05;84.35;56935.91;5005032;28;20042;-77
2023/05/11 06:18:50;;;;;;;63.30;34.08;;;13.00;99.90;;;-144.05;84.40;56948.66;4985431;28;20564;-82
2023/05/11 06:21:15;;;;;;;64.47;35.03;;;13.10;99.90;;;-144.05;84.40;56929.53;4986482;28;20038;-79
2023/05/11 06:23:41;;;;;;;63.97;35.58;;;13.10;99.90;;;-144.05;84.07;56938.03;5004204;28;20094;-80
2023/05/11 06:26:07;;;;;;;67.78;36.75;;;13.20;99.90;;;-144.05;83.57;56946.53;4987512;28;20339;-78
2023/05/11 06:28:33;;;;;;;68.72;36.33;;;13.30;99.90;;;-144.05;83.43;56944.41;5006222;28;20077;-79
2023/05/11 06:30:59;;;;;;;56.80;33.00;;;13.30;99.90;;;-144.05;82.59;56935.91;4987978;28;20042;-79
2023/05/11 06:33:25;;;;;;;56.75;32.80;;;13.40;99.90;;;-144.05;82.19;56961.41;5006310;28;20022;-79
2023/05/11 06:35:51;;;;;;;63.63;32.60;;;13.40;99.90;;;-144.05;82.17;56921.06;5003853;28;20489;-81
2023/05/11 06:38:17;;;;;;;57.40;34.10;;;13.50;99.90;;;-144.05;82.29;56933.78;5002896;28;20042;-78
2023/05/11 06:40:43;;;;;;;57.78;32.88;;;13.50;99.90;;;-144.05;82.12;56921.06;4988834;28;20057;-80
2023/05/11 06:43:09;;;;;;;60.92;34.28;;;13.60;99.90;;;-144.05;81.75;56955.03;4988512;28;20026;-79
2023/05/11 06:45:36;;;;;;;59.22;34.28;;;13.60;99.90;;;-144.05;81.29;56942.28;5005291;28;20029;-83
2023/05/11 06:48:02;;;;;;;56.97;32.42;;;13.60;99.90;;;-144.05;80.96;56957.16;4988917;28;20022;-80
2023/05/11 06:50:29;;;;;;;53.72;32.05;;;13.50;99.90;;;-144.05;80.51;56952.91;5004184;28;20043;-79
2023/05/11 06:52:55;;;;;;;59.13;33.75;;;13.60;99.90;;;-144.05;79.93;56925.28;5003879;28;20516;-78
2023/05/11 06:55:21;;;;;;;50.80;31.40;;;13.70;99.90;;;-144.05;79.42;56929.53;4987736;28;20142;-79
2023/05/11 06:57:46;;;;;;;49.00;30.52;;;13.70;99.90;;;-144.05;78.73;56946.53;5005531;28;20034;-79
2023/05/11 07:00:13;;;;;;;49.33;29.83;;;13.80;99.90;;;-144.05;78.86;56931.66;5004471;28;20058;-80
2023/05/11 07:02:39;;;;;;;51.78;29.80;;;13.90;99.90;;;-144.05;78.51;56959.28;4987724;28;20117;-78
2023/05/11 07:05:05;;;;;;;51.67;30.45;;;13.90;99.90;;;-144.05;78.41;56969.91;5002865;28;20065;-79
2023/05/11 07:07:34;;;;;;;52.60;30.20;;;14.00;99.90;;;-144.05;78.21;56965.66;5003244;28;20452;-77
2023/05/11 07:10:00;;;;;;;49.95;30.63;;;14.10;99.90;;;-144.05;77.58;56931.66;4985110;28;20105;-77
2023/05/11 07:12:26;;;;;;;44.92;27.60;;;14.00;99.90;;;-144.05;76.93;56944.41;5002957;28;20038;-79
2023/05/11 07:14:51;;;;;;;47.88;28.40;;;14.00;99.90;;;-144.05;77.17;56959.28;5002061;28;20479;-79
2023/05/11 07:17:17;;;;;;;49.80;29.45;;;14.00;99.90;;;-144.05;77.20;56948.66;5003193;28;20030;-79
2023/05/11 07:19:43;;;;;;;48.72;27.98;;;14.20;99.90;;;-144.05;76.64;56935.91;5001422;28;20384;-78
2023/05/11 07:22:09;;;;;;;50.10;29.90;;;14.30;99.90;;;-144.05;76.00;56929.53;5002072;28;20018;-79
2023/05/11 07:24:36;;;;;;;44.28;27.08;;;14.40;99.90;;;-144.05;75.52;56955.03;4983674;28;20047;-78
2023/05/11 07:27:02;;;;;;;45.78;27.98;;;14.40;99.90;;;-144.05;75.28;56938.03;4983358;28;20362;-78
2023/05/11 07:29:28;;;;;;;45.70;29.08;;;14.60;99.90;;;-144.05;74.84;56940.16;5000194;28;20038;-78
2023/05/11 07:31:54;;;;;;;41.50;26.08;;;14.70;99.90;;;-144.05;74.06;56940.16;5004977;28;20027;-79
2023/05/11 07:34:20;;;;;;;43.10;26.67;;;14.80;99.90;;;-144.05;73.44;56925.28;4988108;28;20030;-78
2023/05/11 07:36:46;;;;;;;41.90;26.35;;;14.90;99.90;;;-144.05;73.08;56944.41;5006676;28;20137;-80
2023/05/11 07:39:12;;;;;;;40.25;24.27;;;15.10;99.90;;;-144.05;72.19;56940.16;5006670;28;20269;-80
2023/05/11 07:41:38;;;;;;;38.25;24.65;;;15.10;99.90;;;-144.05;71.45;56950.78;5006075;28;20046;-81
2023/05/11 07:44:04;;;;;;;41.95;27.13;;;15.20;99.90;;;-144.05;71.17;56955.03;4988356;28;20022;-79
2023/05/11 07:46:30;;;;;;;42.50;26.38;;;15.20;99.90;;;-144.05;71.76;56965.66;4987224;28;20022;-79
2023/05/11 07:48:56;;;;;;;44.10;26.85;;;15.30;99.90;;;-144.05;71.20;56938.03;5002555;28;20046;-78
2023/05/11 07:51:22;;;;;;;41.65;26.20;;;15.20;99.90;;;-144.05;70.31;56972.03;5001670;28;20035;-79
2023/05/11 07:53:48;;;;;;;43.70;27.48;;;15.20;99.90;;;-144.05;70.08;56929.53;4984914;28;20034;-79
2023/05/11 07:56:14;;;;;;;39.88;25.02;;;15.40;99.90;;;-144.05;68.88;56950.78;5003650;28;20034;-78
2023/05/11 07:58:39;;;;;;;41.88;27.45;;;15.70;99.90;;;-144.05;67.93;56938.03;5004206;28;20053;-79
2023/05/11 08:01:06;;;;;;;37.65;24.52;;;15.90;99.90;;;-144.05;67.80;56955.03;5001210;28;20032;-77
2023/05/11 08:03:32;;;;;;;37.78;24.60;;;16.20;99.90;;;-144.05;65.94;56950.78;5000135;28;20551;-78
2023/05/11 08:05:58;;;;;;;39.03;25.13;;;16.50;99.90;;;-144.05;63.64;56978.41;5001085;28;20478;-79
2023/05/11 08:08:24;;;;;;;38.25;25.65;;;16.60;99.90;;;-144.05;64.03;56965.66;4983827;28;20026;-79
2023/05/11 08:10:50;;;;;;;39.78;25.25;;;16.70;99.90;;;-144.05;63.20;56938.03;5003102;28;20053;-80
2023/05/11 08:13:18;;;;;;;35.45;24.20;;;17.00;99.90;;;-144.05;61.60;56967.78;4985717;28;20026;-80
2023/05/11 08:15:43;;;;;;;34.22;23.02;;;17.20;99.90;;;-144.05;59.72;56933.78;4999749;28;20108;-77
2023/05/11 08:18:10;;;;;;;34.65;22.98;;;17.10;99.90;;;-144.05;58.84;56967.78;5000348;28;20022;-78
2023/05/11 08:20:37;;;;;;;36.22;24.05;;;17.00;99.90;;;-144.05;60.63;56959.28;5000896;28;20073;-77
2023/05/11 08:23:03;;;;;;;33.47;22.33;;;17.20;99.90;;;-144.05;58.89;56961.41;4981976;28;20023;-77
2023/05/11 08:25:29;;;;;;;39.10;23.42;;;17.20;99.90;;;-144.05;59.69;56963.53;5000505;28;20092;-79
2023/05/11 08:27:55;;;;;;;32.28;21.27;;;17.30;99.90;;;-144.05;60.02;56974.16;4999064;28;20385;-79
2023/05/11 08:30:21;;;;;;;34.13;23.95;;;17.60;99.90;;;-144.05;57.63;56938.03;4981913;28;20085;-77
2023/05/11 08:32:47;;;;;;;39.05;25.25;;;17.60;99.90;;;-144.05;58.52;56963.53;5001372;28;20034;-81
2023/05/11 08:35:13;;;;;;;31.58;21.95;;;17.60;99.90;;;-144.05;57.64;56997.50;4983706;28;20041;-80
2023/05/11 08:37:39;;;;;;;30.15;20.35;;;17.80;99.90;;;-144.05;57.56;56967.78;5001680;28;20374;-79
2023/05/11 08:40:05;;;;;;;31.45;20.90;;;17.70;99.90;;;-144.05;57.69;56965.66;5001697;28;20023;-79
2023/05/11 08:42:34;;;;;;;29.35;21.08;;;17.70;99.90;;;-144.05;57.62;56952.91;5000715;28;20026;-80
2023/05/11 08:45:03;;;;;;;26.67;18.23;;;17.40;99.90;;;-144.05;58.80;56989.00;4983782;28;20049;-79
2023/05/11 08:47:30;;;;;;;25.00;18.00;;;17.20;99.90;;;-144.05;59.63;56963.53;4982883;28;20494;-78
2023/05/11 08:49:57;;;;;;;29.30;19.02;;;17.10;99.90;;;-144.05;60.63;56963.53;5001292;28;20054;-81
2023/05/11 08:52:26;;;;;;;24.45;17.85;;;17.00;99.90;;;-144.05;60.94;56961.41;5002426;28;20057;-81
2023/05/11 08:54:52;;;;;;;25.48;18.48;;;17.00;99.90;;;-144.05;60.26;56961.41;5001494;28;20038;-78
2023/05/11 08:57:19;;;;;;;28.00;18.45;;;17.00;99.90;;;-144.05;58.75;56957.16;4985367;28;20034;-79
2023/05/11 08:59:49;;;;;;;27.50;17.00;;;16.90;99.90;;;-144.05;58.73;56978.41;4984863;28;20030;-79
2023/05/11 09:02:19;;;;;;;24.15;17.35;;;16.80;99.90;;;-144.05;59.10;56974.16;4983266;28;20030;-78
2023/05/11 09:04:46;;;;;;;25.90;17.52;;;16.70;99.90;;;-144.05;59.37;56980.53;5001257;28;20052;-77
2023/05/11 09:07:18;;;;;;;21.73;16.92;;;16.80;99.90;;;-144.05;58.96;56944.41;5000513;28;20041;-78
2023/05/11 09:09:46;;;;;;;27.52;17.48;;;16.70;99.90;;;-144.05;59.45;56972.03;4982193;28;20037;-78
2023/05/11 09:12:13;;;;;;;26.63;18.35;;;16.70;99.90;;;-144.05;59.31;56963.53;4982593;28;20034;-79
2023/05/11 09:14:39;;;;;;;27.48;20.15;;;16.70;99.90;;;-144.05;58.94;56955.03;4983420;28;20026;-79
2023/05/11 09:17:05;;;;;;;29.50;20.15;;;16.70;99.90;;;-144.05;59.71;56972.03;4983426;28;20037;-79
2023/05/11 09:19:31;;;;;;;32.92;20.70;;;16.70;99.90;;;-144.05;61.07;56965.66;5000491;28;20037;-76
2023/05/11 09:21:59;;;;;;;30.20;21.13;;;16.80;99.90;;;-144.05;60.72;56950.78;4999159;28;20027;-81
2023/05/11 09:24:25;;;;;;;30.38;20.65;;;16.80;99.90;;;-144.05;60.74;56982.66;5000592;28;20030;-79
2023/05/11 09:27:17;;;;;;;29.33;19.95;;;16.80;99.90;;;-144.05;60.56;56942.28;4983056;28;20030;-78
2023/05/11 09:29:44;;;;;;;24.90;17.48;;;16.70;99.90;;;-144.05;61.03;56959.28;4997171;28;20038;-79
2023/05/11 09:32:10;;;;;;;26.77;17.63;;;16.80;99.90;;;-144.05;60.05;56942.28;4984060;28;20070;-78
2023/05/11 09:34:36;;;;;;;28.02;18.60;;;16.70;99.90;;;-144.05;60.27;56944.41;4984746;28;20031;-78
2023/05/11 09:37:02;;;;;;;26.67;19.42;;;16.80;99.90;;;-144.05;59.97;56959.28;5002877;28;20034;-79
2023/05/11 09:39:31;;;;;;;25.33;17.40;;;16.60;99.90;;;-144.05;60.95;56935.91;5003721;28;20490;-80
2023/05/11 09:42:17;;;;;;;27.20;17.83;;;16.60;99.90;;;-144.05;62.01;56965.66;5007424;28;20030;-78
2023/05/11 09:44:46;;;;;;;25.50;17.40;;;16.60;99.90;;;-144.05;62.28;56965.66;5007855;28;20061;-80
2023/05/11 09:47:21;;;;;;;23.88;16.27;;;16.60;99.90;;;-144.05;60.46;56972.03;4989314;28;20033;-80
2023/05/11 09:49:47;;;;;;;20.27;13.80;;;16.60;99.90;;;-144.05;59.51;56950.78;5006619;28;20081;-78
2023/05/11 09:52:17;;;;;;;21.55;13.93;;;16.60;99.90;;;-144.05;59.08;56946.53;5007021;28;20041;-79
2023/05/11 09:54:46;;;;;;;19.33;14.25;;;16.80;99.90;;;-144.05;59.57;56935.91;5040689;22;20128;-78
2023/05/11 09:57:41;;;;;;;19.40;14.55;;;16.90;99.90;;;-144.05;59.16;56976.28;5036695;28;20036;-78
2023/05/11 10:00:13;;;;;;;20.23;14.48;;;17.00;99.90;;;-144.05;58.07;56955.03;5015214;28;20397;-77